ESSA/ARN METAR and TAF weather

Enter ICAO airport designator
Station Type Date Time Source
ESSA METAR 2019/06/18 16:20 UTC NOAA

ESSA 181620Z 23008KT CAVOK 19/11 Q1015 TEMPO SHRA BKN040CB


Station Type Date Time Source
ESSA Decoded METAR 2019/06/18 16:20 UTC NOAA

Stockholm / Arlanda, Sweden (ESSA) 59-39N 017-57E 61M
Jun 18, 2019 - 12:20 PM EDT / 2019.06.18 1620 UTC
Wind: from the SW (230 degrees) at 9 MPH (8 KT):0
Visibility: greater than 7 mile(s):0
Weather: Cumulonimbus clouds observed
Temperature: 66 F (19 C)
Dew Point: 51 F (11 C)
Relative Humidity: 59%
Pressure (altimeter): 29.97 in. Hg (1015 hPa)
ob: ESSA 181620Z 23008KT CAVOK 19/11 Q1015 TEMPO SHRA BKN040CB
cycle: 16

Station Type Date Time Source
ESSA TAF 2019/06/18 12:35 UTC NOAA

TAF ESSA 181130Z 1812/1912 25014G25KT 9999 SCT040
TEMPO 1812/1818 SHRA BKN050CB
BECMG 1817/1819 18008KT PROB40 1818/1824 SHRA BKN050CB

Example: see airport list